Time;durP1;ratioP1;P1;durP2;ratioP2;P2;SDS_P1;SDS_P2;PMS_P1;PMS_P2;Temp;Humidity;BMP_temperature;BMP_pressure;BME280_temperature;BME280_humidity;BME280_pressure;Samples;Min_cycle;Max_cycle;Signal;HPM_P1;HPM_P2
2023/05/18 00:01:15;;;;;;;;;;;;;;;8.45;74.55;98941.72;7377225;19;20298;-71
2023/05/18 00:03:42;;;;;;;;;;;;;;;8.47;74.66;98943.25;7375105;19;19926;-71
2023/05/18 00:06:09;;;;;;;;;;;;;;;8.54;74.58;98946.22;7375329;19;19918;-71
2023/05/18 00:08:36;;;;;;;;;;;;;;;8.51;74.01;98943.84;7376372;19;19911;-72
2023/05/18 00:11:03;;;;;;;;;;;;;;;8.54;74.74;98933.06;7375843;19;20637;-71
2023/05/18 00:13:29;;;;;;;;;;;;;;;8.54;74.81;98938.31;7373515;19;19915;-71
2023/05/18 00:15:56;;;;;;;;;;;;;;;8.45;74.95;98934.66;7386103;19;19922;-71
2023/05/18 00:18:26;;;;;;;;;;;;;;;8.42;74.65;98932.25;7388335;19;19922;-71
2023/05/18 00:20:59;;;;;;;;;;;;;;;8.36;74.79;98938.84;7386005;19;20028;-71
2023/05/18 00:23:28;;;;;;;;;;;;;;;8.48;74.22;98936.22;7382507;19;19978;-71
2023/05/18 00:25:58;;;;;;;;;;;;;;;8.41;73.73;98937.69;7387064;19;19939;-71
2023/05/18 00:28:25;;;;;;;;;;;;;;;8.35;74.50;98931.09;7380335;19;19915;-71
2023/05/18 00:30:52;;;;;;;;;;;;;;;8.32;74.44;98932.19;7384413;19;19922;-72
2023/05/18 00:33:19;;;;;;;;;;;;;;;8.31;74.47;98930.50;7379641;19;20464;-71
2023/05/18 00:35:46;;;;;;;;;;;;;;;8.23;74.32;98934.75;7380388;19;19929;-71
2023/05/18 00:38:16;;;;;;;;;;;;;;;8.22;75.10;98933.06;7382649;19;19944;-71
2023/05/18 00:40:43;;;;;;;;;;;;;;;8.20;74.94;98929.72;7384120;19;19927;-71
2023/05/18 00:43:11;;;;;;;;;;;;;;;8.19;75.46;98933.31;7380253;19;19995;-72
2023/05/18 00:45:38;;;;;;;;;;;;;;;8.23;74.68;98938.19;7376896;19;19922;-71
2023/05/18 00:48:05;;;;;;;;;;;;;;;8.18;74.99;98937.75;7381071;19;19918;-72
2023/05/18 00:50:31;;;;;;;;;;;;;;;8.18;75.15;98937.75;7382412;19;19918;-72
2023/05/18 00:52:58;;;;;;;;;;;;;;;8.21;74.87;98945.41;7381550;19;19933;-72
2023/05/18 00:55:27;;;;;;;;;;;;;;;8.20;74.92;98949.00;7386840;19;19918;-72
2023/05/18 00:57:55;;;;;;;;;;;;;;;8.23;75.45;98932.94;7379994;19;19927;-71
2023/05/18 01:00:22;;;;;;;;;;;;;;;8.21;75.38;98939.28;7379530;19;19918;-71
2023/05/18 01:02:49;;;;;;;;;;;;;;;8.13;74.79;98927.56;7372843;19;19978;-71
2023/05/18 01:05:18;;;;;;;;;;;;;;;8.16;75.45;98939.66;7378432;19;19915;-71
2023/05/18 01:07:55;;;;;;;;;;;;;;;8.09;75.28;98925.34;7376256;19;19953;-71
2023/05/18 01:10:21;;;;;;;;;;;;;;;8.09;75.62;98926.16;7379675;19;19942;-71
2023/05/18 01:12:50;;;;;;;;;;;;;;;7.99;75.44;98932.31;7380005;19;19933;-71
2023/05/18 01:15:31;;;;;;;;;;;;;;;7.90;75.51;98936.56;7381861;19;19933;-71
2023/05/18 01:18:03;;;;;;;;;;;;;;;7.85;75.69;98933.47;7378813;19;19919;-71
2023/05/18 01:20:36;;;;;;;;;;;;;;;7.75;75.74;98932.53;7378157;19;19927;-71
2023/05/18 01:23:22;;;;;;;;;;;;;;;7.76;76.00;98928.91;7376493;19;19937;-71
2023/05/18 01:25:50;;;;;;;;;;;;;;;7.80;76.09;98933.00;7378646;19;19922;-71
2023/05/18 01:28:19;;;;;;;;;;;;;;;7.87;76.35;98928.88;7378005;19;19919;-71
2023/05/18 01:30:45;;;;;;;;;;;;;;;7.83;76.39;98924.84;7378863;19;19919;-71
2023/05/18 01:33:12;;;;;;;;;;;;;;;7.81;76.58;98932.84;7376487;19;19990;-71
2023/05/18 01:35:46;;;;;;;;;;;;;;;7.76;76.44;98932.38;7372908;19;19921;-71
2023/05/18 01:38:15;;;;;;;;;;;;;;;7.72;76.18;98932.78;7384990;19;19930;-71
2023/05/18 01:41:00;;;;;;;;;;;;;;;7.67;76.70;98933.16;7379794;19;19944;-71
2023/05/18 01:43:29;;;;;;;;;;;;;;;7.69;76.92;98928.59;7377512;19;19923;-71
2023/05/18 01:45:57;;;;;;;;;;;;;;;7.70;76.88;98927.63;7377849;19;19922;-71
2023/05/18 01:48:24;;;;;;;;;;;;;;;7.59;76.16;98925.03;7371535;19;19922;-71
2023/05/18 01:50:51;;;;;;;;;;;;;;;7.58;76.61;98920.69;7368594;19;19933;-71
2023/05/18 01:53:21;;;;;;;;;;;;;;;7.51;76.82;98922.19;7377074;19;19926;-71
2023/05/18 01:55:48;;;;;;;;;;;;;;;7.53;77.25;98917.59;7376972;19;20692;-71
2023/05/18 01:58:15;;;;;;;;;;;;;;;7.53;77.34;98918.47;7377524;19;19918;-72
2023/05/18 02:00:42;;;;;;;;;;;;;;;7.46;76.67;98917.28;7378182;19;20646;-71
2023/05/18 02:03:09;;;;;;;;;;;;;;;7.46;76.82;98926.00;7376504;19;19930;-71
2023/05/18 02:05:35;;;;;;;;;;;;;;;7.44;77.14;98916.56;7377591;19;19919;-71
2023/05/18 02:08:02;;;;;;;;;;;;;;;7.40;77.50;98925.66;7377431;19;19974;-71
2023/05/18 02:10:29;;;;;;;;;;;;;;;7.34;77.12;98923.50;7380697;19;19919;-71
2023/05/18 02:12:56;;;;;;;;;;;;;;;7.32;77.17;98913.13;7376582;19;19970;-72
2023/05/18 02:15:22;;;;;;;;;;;;;;;7.28;76.88;98922.19;7377023;19;20007;-71
2023/05/18 02:17:49;;;;;;;;;;;;;;;7.33;77.02;98927.09;7380756;19;19922;-71
2023/05/18 02:20:17;;;;;;;;;;;;;;;7.22;76.15;98920.06;7376130;19;19925;-71
2023/05/18 02:22:44;;;;;;;;;;;;;;;7.22;76.35;98914.78;7377616;19;19921;-71
2023/05/18 02:25:11;;;;;;;;;;;;;;;7.22;76.96;98915.63;7373255;19;19919;-71
2023/05/18 02:27:38;;;;;;;;;;;;;;;7.11;76.29;98918.28;7376973;19;19918;-71
2023/05/18 02:30:07;;;;;;;;;;;;;;;7.11;76.75;98920.03;7375053;19;19918;-71
2023/05/18 02:32:37;;;;;;;;;;;;;;;7.04;76.54;98912.63;7372932;19;20599;-71
2023/05/18 02:35:05;;;;;;;;;;;;;;;7.12;77.31;98913.84;7370766;19;19926;-71
2023/05/18 02:37:33;;;;;;;;;;;;;;;7.08;76.98;98910.59;7377503;19;19915;-71
2023/05/18 02:40:00;;;;;;;;;;;;;;;7.13;77.54;98907.63;7378125;19;19938;-71
2023/05/18 02:42:28;;;;;;;;;;;;;;;7.10;76.62;98910.50;7374826;19;19918;-71
2023/05/18 02:44:55;;;;;;;;;;;;;;;7.01;76.50;98902.38;7378634;19;19922;-72
2023/05/18 02:47:22;;;;;;;;;;;;;;;7.07;77.24;98908.09;7375910;19;20295;-72
2023/05/18 02:49:49;;;;;;;;;;;;;;;7.04;76.82;98896.84;7376946;19;19935;-72
2023/05/18 02:52:16;;;;;;;;;;;;;;;7.01;77.17;98897.09;7374192;19;19919;-72
2023/05/18 02:54:43;;;;;;;;;;;;;;;7.02;77.02;98901.41;7378007;19;19975;-73
2023/05/18 02:57:16;;;;;;;;;;;;;;;7.00;76.96;98892.81;7373585;19;19944;-73
2023/05/18 02:59:53;;;;;;;;;;;;;;;7.00;77.28;98900.69;7370786;19;19922;-73
2023/05/18 03:02:22;;;;;;;;;;;;;;;7.01;77.29;98902.38;7376759;19;19918;-73
2023/05/18 03:04:52;;;;;;;;;;;;;;;7.04;77.31;98901.28;7373570;19;19918;-73
2023/05/18 03:07:20;;;;;;;;;;;;;;;6.95;76.97;98897.59;7376193;19;19925;-73
2023/05/18 03:09:46;;;;;;;;;;;;;;;6.95;77.09;98896.72;7374860;19;20020;-73
2023/05/18 03:12:13;;;;;;;;;;;;;;;6.88;76.67;98895.56;7373914;19;19965;-73
2023/05/18 03:14:40;;;;;;;;;;;;;;;6.87;76.67;98899.97;7373349;19;19939;-73
2023/05/18 03:20:03;;;;;;;;;;;;;;;6.85;76.79;98895.81;7361096;19;19911;-75
2023/05/18 03:22:30;;;;;;;;;;;;;;;6.86;76.65;98894.84;7369211;19;19934;-72
2023/05/18 03:25:01;;;;;;;;;;;;;;;6.93;77.00;98899.50;7373137;19;19939;-72
2023/05/18 03:27:27;;;;;;;;;;;;;;;6.89;76.58;98895.41;7370348;19;20366;-73
2023/05/18 03:29:58;;;;;;;;;;;;;;;6.92;76.62;98889.91;7370089;19;22306;-73
2023/05/18 03:32:26;;;;;;;;;;;;;;;6.87;76.18;98896.50;7364912;19;19919;-73
2023/05/18 03:34:53;;;;;;;;;;;;;;;6.81;76.23;98898.66;7370505;19;19927;-73
2023/05/18 03:37:20;;;;;;;;;;;;;;;6.73;76.09;98902.84;7367778;19;20390;-73
2023/05/18 03:39:47;;;;;;;;;;;;;;;6.73;76.44;98898.41;7372541;19;19922;-73
2023/05/18 03:42:15;;;;;;;;;;;;;;;6.75;76.69;98898.31;7369409;19;20378;-73
2023/05/18 03:44:42;;;;;;;;;;;;;;;6.69;75.93;98896.97;7374072;19;19919;-73
2023/05/18 03:47:10;;;;;;;;;;;;;;;6.72;76.01;98895.91;7369515;19;19986;-73
2023/05/18 03:49:37;;;;;;;;;;;;;;;6.68;76.25;98902.34;7361844;19;20343;-73
2023/05/18 03:52:04;;;;;;;;;;;;;;;6.70;76.58;98897.81;7372460;19;19982;-73
2023/05/18 03:54:31;;;;;;;;;;;;;;;6.70;76.35;98893.38;7370150;19;19926;-73
2023/05/18 03:56:58;;;;;;;;;;;;;;;6.62;76.63;98898.41;7374106;19;20406;-73
2023/05/18 03:59:25;;;;;;;;;;;;;;;6.72;77.21;98895.91;7367431;19;19923;-73
2023/05/18 04:01:52;;;;;;;;;;;;;;;6.71;77.04;98907.38;7361503;19;20006;-73
2023/05/18 04:04:22;;;;;;;;;;;;;;;6.71;76.67;98904.72;7363169;19;19945;-73
2023/05/18 04:06:52;;;;;;;;;;;;;;;6.81;77.50;98909.16;7366709;19;20644;-73
2023/05/18 04:09:19;;;;;;;;;;;;;;;6.82;77.13;98908.22;7364896;19;19925;-73
2023/05/18 04:11:47;;;;;;;;;;;;;;;6.87;77.54;98909.66;7365633;19;19932;-73
2023/05/18 04:14:13;;;;;;;;;;;;;;;6.94;77.21;98914.31;7369124;19;19925;-73
2023/05/18 04:16:40;;;;;;;;;;;;;;;6.90;77.31;98918.16;7373400;19;19923;-72
2023/05/18 04:19:07;;;;;;;;;;;;;;;6.93;77.38;98920.53;7372073;19;19943;-73
2023/05/18 04:21:34;;;;;;;;;;;;;;;6.95;77.51;98918.63;7363615;19;19940;-73
2023/05/18 04:24:04;;;;;;;;;;;;;;;6.93;76.90;98924.97;7371960;19;20273;-73
2023/05/18 04:26:33;;;;;;;;;;;;;;;6.91;76.75;98926.88;7362670;19;19923;-73
2023/05/18 04:29:00;;;;;;;;;;;;;;;6.94;76.72;98926.63;7357993;19;20177;-73
2023/05/18 04:31:28;;;;;;;;;;;;;;;6.99;77.07;98925.31;7363765;19;19918;-73
2023/05/18 04:33:56;;;;;;;;;;;;;;;7.07;77.09;98934.41;7367934;19;20554;-73
2023/05/18 04:36:24;;;;;;;;;;;;;;;7.11;77.41;98938.47;7355560;19;20387;-73
2023/05/18 04:38:51;;;;;;;;;;;;;;;7.21;76.73;98939.41;7358797;19;19947;-74
2023/05/18 04:41:21;;;;;;;;;;;;;;;7.30;77.66;98940.50;7366918;19;20343;-73
2023/05/18 04:43:51;;;;;;;;;;;;;;;7.34;77.69;98941.94;7344795;19;19914;-73
2023/05/18 04:46:18;;;;;;;;;;;;;;;7.38;77.68;98938.09;7368546;19;19919;-73
2023/05/18 04:48:48;;;;;;;;;;;;;;;7.37;77.18;98931.16;7369002;19;19975;-73
2023/05/18 04:51:20;;;;;;;;;;;;;;;7.38;77.25;98940.75;7367085;19;19975;-74
2023/05/18 04:53:49;;;;;;;;;;;;;;;7.39;77.72;98935.34;7361736;19;19926;-75
2023/05/18 04:56:16;;;;;;;;;;;;;;;7.41;77.72;98938.69;7368884;19;19926;-74
2023/05/18 04:58:44;;;;;;;;;;;;;;;7.47;78.36;98940.81;7370686;19;20366;-74
2023/05/18 05:01:14;;;;;;;;;;;;;;;7.55;77.06;98942.84;7371594;19;19925;-72
2023/05/18 05:03:41;;;;;;;;;;;;;;;7.58;75.88;98941.78;7376345;19;19915;-73
2023/05/18 05:06:08;;;;;;;;;;;;;;;7.65;77.11;98935.06;7376328;19;19960;-73
2023/05/18 05:08:36;;;;;;;;;;;;;;;7.67;77.06;98935.78;7376711;19;20341;-73
2023/05/18 05:11:02;;;;;;;;;;;;;;;7.77;75.92;98936.72;7379231;19;20779;-72
2023/05/18 05:13:29;;;;;;;;;;;;;;;7.85;76.06;98938.72;7371346;19;19991;-74
2023/05/18 05:15:56;;;;;;;;;;;;;;;7.89;76.53;98942.78;7371078;19;19923;-73
2023/05/18 05:18:24;;;;;;;;;;;;;;;7.89;75.01;98940.97;7365887;19;20517;-73
2023/05/18 05:20:52;;;;;;;;;;;;;;;7.96;75.52;98940.50;7372111;19;19919;-72
2023/05/18 05:23:18;;;;;;;;;;;;;;;7.98;75.94;98939.41;7364611;19;19927;-72
2023/05/18 05:25:45;;;;;;;;;;;;;;;8.04;75.42;98933.63;7377349;19;19923;-72
2023/05/18 05:28:12;;;;;;;;;;;;;;;8.10;75.35;98937.53;7367029;19;19921;-72
2023/05/18 05:30:40;;;;;;;;;;;;;;;8.14;76.20;98939.81;7370319;19;20190;-73
2023/05/18 05:33:07;;;;;;;;;;;;;;;8.13;75.46;98942.56;7365690;19;19919;-73
2023/05/18 05:35:34;;;;;;;;;;;;;;;8.20;76.10;98942.91;7362883;19;19919;-73
2023/05/18 05:38:02;;;;;;;;;;;;;;;8.23;75.53;98940.00;7374544;19;19918;-73
2023/05/18 05:40:30;;;;;;;;;;;;;;;8.23;74.90;98947.91;7374331;19;19926;-73
2023/05/18 05:42:57;;;;;;;;;;;;;;;8.23;74.17;98945.28;7365751;19;20257;-73
2023/05/18 05:45:27;;;;;;;;;;;;;;;8.13;73.12;98942.56;7364859;19;20422;-72
2023/05/18 05:47:56;;;;;;;;;;;;;;;8.25;73.55;98951.28;7368527;19;19986;-71
2023/05/18 05:50:23;;;;;;;;;;;;;;;8.33;75.11;98948.84;7371123;19;20019;-73
2023/05/18 05:52:53;;;;;;;;;;;;;;;8.35;74.13;98960.91;7370641;19;19918;-73
2023/05/18 05:55:21;;;;;;;;;;;;;;;8.46;75.06;98951.31;7366233;19;19919;-72
2023/05/18 05:57:49;;;;;;;;;;;;;;;8.51;74.88;98946.50;7374873;19;19918;-73
2023/05/18 06:00:16;;;;;;;;;;;;;;;8.57;73.99;98949.44;7374647;19;19923;-73
2023/05/18 06:02:51;;;;;;;;;;;;;;;8.54;72.62;98947.06;7371903;19;19994;-74
2023/05/18 06:05:36;;;;;;;;;;;;;;;8.61;72.55;98943.91;7374681;19;19914;-74
2023/05/18 06:08:06;;;;;;;;;;;;;;;8.55;71.53;98945.25;7370407;19;20513;-72
2023/05/18 06:10:33;;;;;;;;;;;;;;;8.69;71.96;98944.94;7374273;19;20560;-73
2023/05/18 06:13:00;;;;;;;;;;;;;;;8.62;70.20;98945.59;7368955;19;19919;-73
2023/05/18 06:15:39;;;;;;;;;;;;;;;8.66;71.29;98950.50;7373051;19;19954;-73
2023/05/18 06:18:06;;;;;;;;;;;;;;;8.73;70.89;98948.16;7371829;19;19922;-73
2023/05/18 06:20:33;;;;;;;;;;;;;;;8.77;70.78;98947.78;7369469;19;19919;-73
2023/05/18 06:23:00;;;;;;;;;;;;;;;8.88;71.95;98951.31;7370837;19;19935;-73
2023/05/18 06:25:46;;;;;;;;;;;;;;;8.98;73.55;98950.38;7373753;19;19928;-73
2023/05/18 06:28:38;;;;;;;;;;;;;;;9.06;73.02;98956.78;7373888;19;20252;-73
2023/05/18 06:31:14;;;;;;;;;;;;;;;9.11;73.39;98955.44;7368430;19;19923;-73
2023/05/18 06:33:44;;;;;;;;;;;;;;;9.08;70.92;98955.69;7363442;19;19922;-74
2023/05/18 06:36:11;;;;;;;;;;;;;;;9.17;71.10;98957.53;7364528;19;19919;-73
2023/05/18 06:38:38;;;;;;;;;;;;;;;9.21;70.58;98943.09;7373785;19;20515;-73
2023/05/18 06:41:04;;;;;;;;;;;;;;;9.26;69.69;98947.97;7369021;19;19990;-73
2023/05/18 06:43:31;;;;;;;;;;;;;;;9.32;70.38;98944.84;7368030;19;19921;-74
2023/05/18 06:46:02;;;;;;;;;;;;;;;9.43;70.68;98954.47;7368533;19;19931;-73
2023/05/18 06:48:34;;;;;;;;;;;;;;;9.51;70.77;98941.41;7366516;19;20294;-73
2023/05/18 06:51:02;;;;;;;;;;;;;;;9.62;72.58;98949.22;7366132;19;20201;-73
2023/05/18 06:53:30;;;;;;;;;;;;;;;9.74;73.69;98957.03;7362101;19;19993;-72
2023/05/18 06:55:58;;;;;;;;;;;;;;;9.77;71.93;98948.81;7370476;19;19915;-73
2023/05/18 06:58:25;;;;;;;;;;;;;;;9.84;72.16;98945.50;7369348;19;19915;-73
2023/05/18 07:00:53;;;;;;;;;;;;;;;9.82;69.71;98941.31;7369843;19;19943;-73
2023/05/18 07:03:20;;;;;;;;;;;;;;;9.89;68.74;98947.72;7370580;19;19943;-72
2023/05/18 07:05:47;;;;;;;;;;;;;;;9.99;70.05;98940.66;7371619;19;19922;-72
2023/05/18 07:08:14;;;;;;;;;;;;;;;10.05;70.08;98948.03;7373441;19;19919;-73
2023/05/18 07:10:41;;;;;;;;;;;;;;;10.09;69.37;98951.25;7368590;19;19919;-73
2023/05/18 07:13:07;;;;;;;;;;;;;;;10.11;68.00;98950.13;7368754;19;19914;-73
2023/05/18 07:15:34;;;;;;;;;;;;;;;10.26;70.67;98947.88;7368337;19;20364;-72
2023/05/18 07:18:02;;;;;;;;;;;;;;;10.38;71.95;98955.72;7374246;19;19923;-73
2023/05/18 07:20:29;;;;;;;;;;;;;;;10.46;70.94;98950.56;7372707;19;20268;-73
2023/05/18 07:22:56;;;;;;;;;;;;;;;10.52;70.05;98952.63;7373083;19;19930;-72
2023/05/18 07:25:22;;;;;;;;;;;;;;;10.57;68.38;98942.47;7367612;19;20326;-73
2023/05/18 07:27:53;;;;;;;;;;;;;;;10.64;67.88;98937.47;7370148;19;20340;-73
2023/05/18 07:30:20;;;;;;;;;;;;;;;10.55;63.46;98947.88;7370254;19;19922;-73
2023/05/18 07:32:47;;;;;;;;;;;;;;;10.72;68.10;98946.34;7367282;19;22978;-73
2023/05/18 07:35:15;;;;;;;;;;;;;;;10.80;69.80;98942.16;7367267;19;19922;-73
2023/05/18 07:37:42;;;;;;;;;;;;;;;10.88;65.98;98944.91;7370209;19;19990;-73
2023/05/18 07:40:09;;;;;;;;;;;;;;;10.92;69.86;98941.00;7372197;19;20253;-73
2023/05/18 07:42:37;;;;;;;;;;;;;;;10.90;68.43;98941.16;7366863;19;20641;-74
2023/05/18 07:45:04;;;;;;;;;;;;;;;10.86;64.71;98938.94;7372148;19;19930;-71
2023/05/18 07:47:30;;;;;;;;;;;;;;;10.90;65.15;98937.66;7373989;19;19915;-73
2023/05/18 07:49:57;;;;;;;;;;;;;;;10.91;64.25;98931.38;7371509;19;19918;-73
2023/05/18 07:52:24;;;;;;;;;;;;;;;11.06;67.11;98929.09;7374618;19;19923;-74
2023/05/18 07:54:54;;;;;;;;;;;;;;;11.20;69.23;98926.81;7375446;19;19929;-73
2023/05/18 07:57:21;;;;;;;;;;;;;;;11.23;66.32;98931.00;7373140;19;19918;-73
2023/05/18 07:59:47;;;;;;;;;;;;;;;11.38;70.01;98924.22;7370559;19;19930;-73
2023/05/18 08:02:16;;;;;;;;;;;;;;;11.51;69.02;98923.06;7375395;19;19919;-73
2023/05/18 08:04:46;;;;;;;;;;;;;;;11.56;63.23;98918.16;7374133;19;19926;-74
2023/05/18 08:07:13;;;;;;;;;;;;;;;11.69;64.16;98910.66;7356407;19;19930;-73
2023/05/18 08:09:40;;;;;;;;;;;;;;;11.83;67.60;98918.09;7355383;19;20308;-74
2023/05/18 08:12:07;;;;;;;;;;;;;;;11.86;64.94;98919.66;7350121;19;19937;-73
2023/05/18 08:14:33;;;;;;;;;;;;;;;11.95;67.15;98921.38;7368303;19;19919;-74
2023/05/18 08:17:02;;;;;;;;;;;;;;;12.05;68.25;98916.84;7365950;19;19925;-74
2023/05/18 08:19:29;;;;;;;;;;;;;;;12.03;63.08;98918.81;7365672;19;21037;-74
2023/05/18 08:21:56;;;;;;;;;;;;;;;12.10;65.11;98907.59;7369281;19;19943;-74
2023/05/18 08:24:23;;;;;;;;;;;;;;;12.19;66.80;98918.13;7373278;19;19927;-73
2023/05/18 08:26:50;;;;;;;;;;;;;;;12.27;64.71;98914.72;7375797;19;19925;-74
2023/05/18 08:29:17;;;;;;;;;;;;;;;12.30;63.94;98920.53;7370382;19;19923;-74
2023/05/18 08:31:44;;;;;;;;;;;;;;;12.45;66.66;98912.88;7370071;19;19921;-73
2023/05/18 08:34:15;;;;;;;;;;;;;;;12.43;63.23;98903.41;7368634;19;19914;-74
2023/05/18 08:36:44;;;;;;;;;;;;;;;12.44;60.00;98915.69;7377709;19;19966;-72
2023/05/18 08:39:11;;;;;;;;;;;;;;;12.54;60.04;98908.47;7377236;19;19918;-73
2023/05/18 08:41:40;;;;;;;;;;;;;;;12.79;63.91;98900.66;7376392;19;19925;-73
2023/05/18 08:44:15;;;;;;;;;;;;;;;12.91;57.23;98899.41;7376396;19;19915;-73
2023/05/18 08:46:42;;;;;;;;;;;;;;;13.05;59.27;98898.78;7377460;19;19915;-72
2023/05/18 08:49:09;;;;;;;;;;;;;;;13.29;58.45;98898.09;7369377;19;20374;-72
2023/05/18 08:51:36;;;;;;;;;;;;;;;13.37;59.01;98890.16;7374099;19;19916;-72
2023/05/18 08:54:07;;;;;;;;;;;;;;;13.57;57.53;98888.06;7382041;19;19922;-72
2023/05/18 08:56:33;;;;;;;;;;;;;;;13.76;56.20;98894.09;7381965;19;19919;-71
2023/05/18 08:59:03;;;;;;;;;;;;;;;13.88;61.11;98887.47;7374168;19;19943;-71
2023/05/18 09:01:30;;;;;;;;;;;;;;;14.00;61.27;98885.31;7377088;19;20208;-71
2023/05/18 09:03:57;;;;;;;;;;;;;;;14.10;59.91;98888.63;7374691;19;19930;-73
2023/05/18 09:06:27;;;;;;;;;;;;;;;14.25;56.71;98879.00;7369806;19;19911;-71
2023/05/18 09:08:57;;;;;;;;;;;;;;;14.34;59.70;98887.81;7381134;19;20584;-71
2023/05/18 09:11:24;;;;;;;;;;;;;;;14.29;55.25;98884.81;7377980;19;19926;-71
2023/05/18 09:13:51;;;;;;;;;;;;;;;14.21;58.62;98884.81;7373813;19;20299;-72
2023/05/18 09:16:17;;;;;;;;;;;;;;;14.39;56.84;98888.13;7377838;19;19918;-72
2023/05/18 09:18:45;;;;;;;;;;;;;;;14.54;57.89;98891.00;7377169;19;19917;-73
2023/05/18 09:21:12;;;;;;;;;;;;;;;14.57;55.84;98880.00;7375236;19;20345;-72
2023/05/18 09:23:39;;;;;;;;;;;;;;;14.68;56.79;98882.31;7370217;19;19923;-73
2023/05/18 09:26:08;;;;;;;;;;;;;;;14.69;54.02;98883.97;7380853;19;19986;-73
2023/05/18 09:28:36;;;;;;;;;;;;;;;14.75;55.92;98882.47;7377261;19;19951;-72
2023/05/18 09:31:03;;;;;;;;;;;;;;;14.69;55.02;98883.13;7375875;19;19919;-71
2023/05/18 09:33:34;;;;;;;;;;;;;;;14.73;55.19;98892.47;7379379;19;19919;-73
2023/05/18 09:36:01;;;;;;;;;;;;;;;14.94;54.45;98886.59;7376854;19;19962;-72
2023/05/18 09:38:27;;;;;;;;;;;;;;;15.17;53.57;98883.19;7377884;19;19919;-71
2023/05/18 09:40:54;;;;;;;;;;;;;;;15.47;53.61;98873.53;7380771;19;20251;-73
2023/05/18 09:43:21;;;;;;;;;;;;;;;15.64;52.93;98877.78;7379975;19;19919;-72
2023/05/18 09:45:48;;;;;;;;;;;;;;;15.48;50.82;98873.38;7383695;19;19918;-72
2023/05/18 09:48:15;;;;;;;;;;;;;;;15.33;50.81;98878.59;7383134;19;20293;-73
2023/05/18 09:50:42;;;;;;;;;;;;;;;15.19;50.76;98883.81;7378871;19;19925;-74
2023/05/18 09:53:09;;;;;;;;;;;;;;;15.45;50.14;98873.69;7379714;19;19926;-72
2023/05/18 09:55:37;;;;;;;;;;;;;;;15.69;51.23;98877.25;7378831;19;20371;-73
2023/05/18 09:58:04;;;;;;;;;;;;;;;15.78;51.71;98879.72;7381438;19;19929;-71
2023/05/18 10:00:31;;;;;;;;;;;;;;;15.86;51.92;98873.50;7379961;19;19926;-73
2023/05/18 10:02:59;;;;;;;;;;;;;;;15.84;50.64;98874.69;7382327;19;19982;-73
2023/05/18 10:05:29;;;;;;;;;;;;;;;15.83;49.94;98875.69;7378926;19;20349;-72
2023/05/18 10:07:58;;;;;;;;;;;;;;;15.78;49.05;98868.22;7378691;19;19947;-72
2023/05/18 10:10:28;;;;;;;;;;;;;;;15.82;45.54;98855.34;7372149;19;19997;-71
2023/05/18 10:12:57;;;;;;;;;;;;;;;15.88;49.36;98860.81;7377618;19;20350;-72
2023/05/18 10:15:24;;;;;;;;;;;;;;;16.08;46.90;98855.00;7378966;19;19922;-72
2023/05/18 10:17:52;;;;;;;;;;;;;;;16.26;48.93;98850.16;7383249;19;20375;-71
2023/05/18 10:20:19;;;;;;;;;;;;;;;16.64;50.23;98842.97;7378802;19;20288;-71
2023/05/18 10:22:47;;;;;;;;;;;;;;;16.96;49.14;98846.31;7376952;19;20018;-72
2023/05/18 10:25:24;;;;;;;;;;;;;;;17.28;46.43;98839.72;7377918;19;19914;-72
2023/05/18 10:27:55;;;;;;;;;;;;;;;17.58;45.26;98846.84;7383288;19;19919;-72
2023/05/18 10:30:21;;;;;;;;;;;;;;;17.77;47.09;98849.75;7377193;19;20591;-72
2023/05/18 10:32:48;;;;;;;;;;;;;;;17.77;44.49;98843.53;7379166;19;19914;-72
2023/05/18 10:35:15;;;;;;;;;;;;;;;17.90;45.41;98840.19;7377984;19;19947;-75
2023/05/18 10:37:47;;;;;;;;;;;;;;;17.69;41.44;98835.63;7377203;19;20260;-72
2023/05/18 10:40:14;;;;;;;;;;;;;;;18.19;45.27;98831.19;7380261;19;19918;-71
2023/05/18 10:42:41;;;;;;;;;;;;;;;18.30;43.38;98832.50;7371925;19;19949;-71
2023/05/18 10:45:08;;;;;;;;;;;;;;;18.02;39.66;98836.00;7375775;19;19915;-73
2023/05/18 10:47:38;;;;;;;;;;;;;;;18.63;44.39;98838.94;7377614;19;19945;-72
2023/05/18 10:50:05;;;;;;;;;;;;;;;18.86;40.81;98833.34;7378790;19;19990;-72
2023/05/18 10:52:32;;;;;;;;;;;;;;;18.95;42.73;98825.13;7377936;19;19930;-73
2023/05/18 10:54:59;;;;;;;;;;;;;;;18.80;38.50;98830.59;7381120;19;20347;-72
2023/05/18 10:57:30;;;;;;;;;;;;;;;18.77;41.87;98828.31;7376535;19;19962;-73
2023/05/18 10:59:56;;;;;;;;;;;;;;;18.54;38.59;98824.06;7378535;19;20006;-72
2023/05/18 11:02:23;;;;;;;;;;;;;;;18.60;43.21;98822.44;7377768;19;19918;-71
2023/05/18 11:04:51;;;;;;;;;;;;;;;18.73;41.41;98832.41;7380139;19;19915;-72
2023/05/18 11:07:19;;;;;;;;;;;;;;;18.81;40.55;98819.69;7376854;19;19919;-72
2023/05/18 11:09:47;;;;;;;;;;;;;;;19.07;43.68;98823.56;7378778;19;20024;-72
2023/05/18 11:12:15;;;;;;;;;;;;;;;19.16;42.51;98824.19;7373470;19;19957;-72
2023/05/18 11:14:49;;;;;;;;;;;;;;;18.68;38.19;98819.59;7368779;19;19919;-72
2023/05/18 11:17:26;;;;;;;;;;;;;;;18.28;37.99;98826.53;7378001;19;19946;-72
2023/05/18 11:20:03;;;;;;;;;;;;;;;17.98;42.64;98826.69;7375859;19;19919;-72
2023/05/18 11:22:50;;;;;;;;;;;;;;;17.92;45.71;98825.59;7375186;19;19919;-71
2023/05/18 11:25:32;;;;;;;;;;;;;;;17.96;41.45;98816.19;7379373;19;19934;-72
2023/05/18 11:28:00;;;;;;;;;;;;;;;17.93;43.84;98805.88;7379909;19;19974;-72
2023/05/18 11:30:27;;;;;;;;;;;;;;;18.25;43.85;98809.00;7373071;19;23734;-72
2023/05/18 11:33:07;;;;;;;;;;;;;;;18.52;43.16;98809.19;7378206;19;19978;-72
2023/05/18 11:35:52;;;;;;;;;;;;;;;18.44;43.13;98804.81;7373895;19;19939;-72
2023/05/18 11:38:19;;;;;;;;;;;;;;;18.66;43.38;98808.25;7376756;19;19925;-72
2023/05/18 11:40:46;;;;;;;;;;;;;;;18.53;41.47;98811.66;7374105;19;20307;-74
2023/05/18 11:43:19;;;;;;;;;;;;;;;18.29;42.17;98807.59;7376100;19;19922;-72
2023/05/18 11:45:53;;;;;;;;;;;;;;;18.13;42.55;98802.53;7379335;19;19930;-72
2023/05/18 11:48:22;;;;;;;;;;;;;;;18.16;38.99;98804.81;7367117;19;19957;-71
2023/05/18 11:50:51;;;;;;;;;;;;;;;18.55;41.09;98803.44;7370649;19;19951;-73
2023/05/18 11:53:18;;;;;;;;;;;;;;;18.82;40.80;98796.41;7369327;19;20260;-72
2023/05/18 11:55:45;;;;;;;;;;;;;;;18.78;41.94;98801.34;7376496;19;19921;-72
2023/05/18 11:58:17;;;;;;;;;;;;;;;18.97;43.05;98799.78;7377210;19;19919;-74
2023/05/18 12:00:46;;;;;;;;;;;;;;;19.39;42.73;98791.69;7372781;19;19933;-73
2023/05/18 12:03:13;;;;;;;;;;;;;;;19.67;37.84;98792.41;7369082;19;19911;-73
2023/05/18 12:05:40;;;;;;;;;;;;;;;19.67;36.43;98795.09;7371269;19;20377;-72
2023/05/18 12:08:07;;;;;;;;;;;;;;;19.47;37.94;98781.59;7378088;19;19998;-72
2023/05/18 12:10:38;;;;;;;;;;;;;;;19.89;37.41;98776.09;7373576;19;19925;-72
2023/05/18 12:13:05;;;;;;;;;;;;;;;19.93;36.97;98780.88;7380934;19;19945;-72
2023/05/18 12:15:31;;;;;;;;;;;;;;;19.79;39.63;98783.75;7383083;19;19919;-72
2023/05/18 12:17:58;;;;;;;;;;;;;;;19.38;39.39;98780.13;7383861;19;19933;-74
2023/05/18 12:20:27;;;;;;;;;;;;;;;19.36;38.30;98781.38;7368702;19;20347;-73
2023/05/18 12:22:54;;;;;;;;;;;;;;;19.36;36.99;98779.50;7372939;19;19940;-73
2023/05/18 12:25:22;;;;;;;;;;;;;;;19.25;38.33;98774.72;7377143;19;20406;-73
2023/05/18 12:27:49;;;;;;;;;;;;;;;19.25;37.54;98777.41;7380151;19;19923;-73
2023/05/18 12:30:15;;;;;;;;;;;;;;;18.90;37.61;98779.31;7382985;19;19966;-73
2023/05/18 12:32:52;;;;;;;;;;;;;;;18.53;39.18;98776.81;7380475;19;19914;-73
2023/05/18 12:35:22;;;;;;;;;;;;;;;18.32;42.45;98782.25;7383504;19;19941;-72
2023/05/18 12:37:49;;;;;;;;;;;;;;;18.01;40.37;98774.59;7377296;19;19990;-74
2023/05/18 12:40:17;;;;;;;;;;;;;;;18.14;38.76;98772.03;7379044;19;20000;-72
2023/05/18 12:42:51;;;;;;;;;;;;;;;18.82;42.68;98775.78;7367918;19;19907;-73
2023/05/18 12:45:18;;;;;;;;;;;;;;;18.90;38.16;98763.25;7380904;19;19921;-72
2023/05/18 12:47:45;;;;;;;;;;;;;;;18.73;42.40;98773.44;7380282;19;19950;-72
2023/05/18 12:50:12;;;;;;;;;;;;;;;18.71;42.09;98768.28;7378155;19;19922;-72
2023/05/18 12:52:38;;;;;;;;;;;;;;;18.78;44.03;98768.34;7378067;19;19933;-72
2023/05/18 12:55:09;;;;;;;;;;;;;;;19.14;42.85;98757.38;7382643;19;19925;-72
2023/05/18 12:57:36;;;;;;;;;;;;;;;20.14;40.69;98755.66;7378694;19;20344;-72
2023/05/18 13:00:09;;;;;;;;;;;;;;;20.88;38.92;98755.50;7381570;19;19935;-73
2023/05/18 13:02:36;;;;;;;;;;;;;;;20.26;36.06;98755.00;7372376;19;19918;-73